Time;durP1;ratioP1;P1;durP2;ratioP2;P2;SDS_P1;SDS_P2;PMS_P1;PMS_P2;Temp;Humidity;BMP_temperature;BMP_pressure;BME280_temperature;BME280_humidity;BME280_pressure;Samples;Min_cycle;Max_cycle;Signal;HPM_P1;HPM_P2
2022/08/10 00:00:53;;;;;;;4.83;2.23;;;19.10;87.00;;;;;;4562251;29;9999744;-73
2022/08/10 00:03:19;;;;;;;4.93;2.50;;;19.10;87.10;;;;;;4904730;29;20359;-73
2022/08/10 00:05:44;;;;;;;3.45;2.42;;;19.10;87.50;;;;;;4906380;29;20111;-73
2022/08/10 00:08:10;;;;;;;5.65;2.50;;;19.00;87.40;;;;;;4907961;29;20441;-73
2022/08/10 00:10:36;;;;;;;4.47;2.30;;;19.00;87.50;;;;;;4907915;29;20041;-73
2022/08/10 00:13:01;;;;;;;2.33;2.13;;;19.00;87.50;;;;;;4906350;29;20496;-74
2022/08/10 00:15:27;;;;;;;5.60;2.38;;;19.00;87.70;;;;;;4906027;29;20448;-73
2022/08/10 00:17:53;;;;;;;3.58;2.13;;;19.00;87.90;;;;;;4902361;29;20643;-73
2022/08/10 00:20:19;;;;;;;4.75;2.60;;;19.00;88.20;;;;;;4904319;29;20707;-73
2022/08/10 00:22:44;;;;;;;4.68;2.45;;;19.00;88.50;;;;;;4907962;29;20559;-74
2022/08/10 00:25:10;;;;;;;4.53;2.20;;;18.90;88.50;;;;;;4902446;29;20052;-73
2022/08/10 00:27:35;;;;;;;5.50;2.30;;;18.90;88.50;;;;;;4909546;29;20036;-73
2022/08/10 00:30:01;;;;;;;4.07;2.08;;;18.80;88.60;;;;;;4909480;29;20032;-73
2022/08/10 00:32:27;;;;;;;5.57;2.20;;;18.80;88.60;;;;;;4897375;29;20130;-73
2022/08/10 00:34:52;;;;;;;4.60;2.50;;;18.80;88.50;;;;;;4902283;29;20159;-73
2022/08/10 00:37:18;;;;;;;7.85;2.30;;;18.80;88.60;;;;;;4905910;29;20073;-74
2022/08/10 00:39:45;;;;;;;4.70;2.20;;;18.80;88.70;;;;;;4903763;29;20440;-73
2022/08/10 00:42:12;;;;;;;4.20;2.08;;;18.80;88.70;;;;;;4899541;29;20499;-74
2022/08/10 00:44:43;;;;;;;4.25;2.17;;;18.80;88.70;;;;;;4906812;29;20032;-73
2022/08/10 00:47:10;;;;;;;3.63;2.50;;;18.80;88.80;;;;;;4905776;29;20035;-73
2022/08/10 00:49:36;;;;;;;4.53;2.20;;;18.80;88.70;;;;;;4905942;29;20028;-74
2022/08/10 00:52:03;;;;;;;2.97;2.10;;;18.80;88.70;;;;;;4907963;29;20042;-73
2022/08/10 00:54:29;;;;;;;4.53;2.30;;;18.80;88.50;;;;;;4900999;29;20060;-73
2022/08/10 00:56:55;;;;;;;4.35;2.13;;;18.90;88.80;;;;;;4900590;29;20036;-72
2022/08/10 00:59:21;;;;;;;5.00;2.33;;;18.80;88.90;;;;;;4904352;29;20032;-73
2022/08/10 01:01:47;;;;;;;6.25;2.20;;;18.80;88.80;;;;;;4905796;29;20068;-74
2022/08/10 01:04:13;;;;;;;5.72;2.47;;;18.80;89.30;;;;;;4908950;29;20567;-73
2022/08/10 01:06:58;;;;;;;3.55;2.05;;;18.70;89.40;;;;;;4899076;29;20084;-73
2022/08/10 01:10:06;;;;;;;4.55;2.20;;;18.70;89.40;;;;;;4905643;29;20027;-73
2022/08/10 01:12:59;;;;;;;5.07;2.13;;;18.70;89.40;;;;;;4902533;29;20039;-73
2022/08/10 01:15:35;;;;;;;7.35;2.40;;;18.70;89.70;;;;;;4900179;29;20016;-73
2022/08/10 01:18:12;;;;;;;4.88;2.20;;;18.70;89.70;;;;;;4906249;29;20020;-73
2022/08/10 01:21:00;;;;;;;8.48;2.30;;;18.70;89.70;;;;;;4904016;29;20032;-72
2022/08/10 01:23:47;;;;;;;3.47;2.47;;;18.60;90.00;;;;;;4891575;29;20048;-73
2022/08/10 01:26:37;;;;;;;4.25;2.20;;;18.60;90.00;;;;;;4902887;29;20039;-73
2022/08/10 01:29:28;;;;;;;4.18;2.10;;;18.60;89.90;;;;;;4909692;29;20035;-73
2022/08/10 01:31:59;;;;;;;4.72;2.40;;;18.60;90.00;;;;;;4900719;29;20519;-73
2022/08/10 01:34:37;;;;;;;4.18;2.10;;;18.60;90.10;;;;;;4909035;29;20501;-74
2022/08/10 01:37:10;;;;;;;7.18;2.35;;;18.60;90.30;;;;;;4899713;29;20500;-73
2022/08/10 01:39:40;;;;;;;4.50;2.20;;;18.50;90.40;;;;;;4899854;29;20480;-74
2022/08/10 01:42:10;;;;;;;2.72;2.17;;;18.50;90.50;;;;;;4906704;29;20104;-73
2022/08/10 01:44:39;;;;;;;4.97;2.55;;;18.40;90.60;;;;;;4905450;29;20040;-73
2022/08/10 01:50:53;;;;;;;7.53;2.55;;;18.40;90.70;;;;;;4807575;29;20531;-74
2022/08/10 01:53:24;;;;;;;5.20;2.55;;;18.40;90.90;;;;;;4800259;29;20050;-74
2022/08/10 01:55:52;;;;;;;5.18;2.50;;;18.40;90.90;;;;;;4875875;29;20048;-73
2022/08/10 01:58:19;;;;;;;4.93;2.53;;;18.30;91.30;;;;;;4905753;29;20742;-73
2022/08/10 02:00:50;;;;;;;7.13;2.65;;;18.30;91.10;;;;;;4898628;29;20570;-72
2022/08/10 02:03:18;;;;;;;4.13;2.50;;;18.30;91.30;;;;;;4897023;29;20663;-73
2022/08/10 02:05:49;;;;;;;6.10;2.70;;;18.20;91.40;;;;;;4906911;29;20036;-73
2022/08/10 02:08:18;;;;;;;6.22;2.80;;;18.20;91.70;;;;;;4907843;29;20680;-73
2022/08/10 02:10:45;;;;;;;6.72;2.60;;;18.10;91.90;;;;;;4903946;29;20036;-73
2022/08/10 02:13:11;;;;;;;3.97;2.55;;;18.10;91.60;;;;;;4904519;29;20120;-73
2022/08/10 02:15:39;;;;;;;3.42;2.55;;;18.10;91.70;;;;;;4898308;29;20397;-73
2022/08/10 02:18:06;;;;;;;10.82;2.47;;;18.10;91.70;;;;;;4902583;29;20580;-73
2022/08/10 02:20:40;;;;;;;5.43;2.50;;;18.10;91.80;;;;;;4900748;29;20044;-73
2022/08/10 02:23:11;;;;;;;5.20;2.67;;;18.10;91.80;;;;;;4913390;29;20111;-73
2022/08/10 02:25:38;;;;;;;4.63;2.55;;;18.00;91.90;;;;;;4908277;29;20036;-73
2022/08/10 02:28:06;;;;;;;3.63;2.67;;;18.10;92.20;;;;;;4913722;29;20681;-73
2022/08/10 02:30:32;;;;;;;4.32;2.50;;;18.00;92.10;;;;;;4901778;29;20040;-74
2022/08/10 02:33:00;;;;;;;7.18;2.50;;;18.00;92.10;;;;;;4909847;29;20123;-72
2022/08/10 02:35:26;;;;;;;3.83;2.22;;;18.00;92.20;;;;;;4899576;29;20036;-73
2022/08/10 02:37:58;;;;;;;5.45;2.47;;;18.00;92.50;;;;;;4910548;29;20032;-74
2022/08/10 02:40:26;;;;;;;3.92;2.20;;;17.90;92.50;;;;;;4907059;29;20039;-74
2022/08/10 02:43:02;;;;;;;5.88;2.60;;;17.90;93.10;;;;;;4912920;29;20039;-73
2022/08/10 02:45:41;;;;;;;2.50;2.30;;;17.80;92.90;;;;;;4912944;29;20036;-73
2022/08/10 02:48:27;;;;;;;3.58;2.50;;;17.80;92.90;;;;;;4904099;29;20051;-74
2022/08/10 02:51:00;;;;;;;3.58;2.20;;;17.80;93.20;;;;;;4904313;29;20075;-73
2022/08/10 02:53:34;;;;;;;5.47;2.47;;;17.80;93.30;;;;;;4911486;29;20032;-73
2022/08/10 02:56:05;;;;;;;3.25;2.25;;;17.80;93.50;;;;;;4910222;29;20036;-73
2022/08/10 02:58:43;;;;;;;3.17;2.45;;;17.70;93.60;;;;;;4902991;29;20048;-73
2022/08/10 03:01:16;;;;;;;6.00;2.63;;;17.70;93.90;;;;;;4908537;29;20036;-74
2022/08/10 03:04:07;;;;;;;3.75;2.25;;;17.60;93.90;;;;;;4909394;29;20028;-73
2022/08/10 03:06:38;;;;;;;5.95;2.72;;;17.60;94.00;;;;;;4902076;29;20119;-74
2022/08/10 03:09:07;;;;;;;5.30;2.85;;;17.60;94.10;;;;;;4897123;29;20021;-73
2022/08/10 03:11:34;;;;;;;5.32;2.85;;;17.60;94.20;;;;;;4905196;29;20051;-73
2022/08/10 03:14:00;;;;;;;5.15;2.88;;;17.60;94.30;;;;;;4901433;29;20611;-73
2022/08/10 03:16:29;;;;;;;5.68;2.47;;;17.60;94.50;;;;;;4914631;29;20070;-72
2022/08/10 03:18:59;;;;;;;6.35;3.05;;;17.60;94.50;;;;;;4914682;29;20032;-72
2022/08/10 03:21:26;;;;;;;3.72;2.35;;;17.50;94.50;;;;;;4900945;29;20060;-73
2022/08/10 03:23:54;;;;;;;4.00;2.78;;;17.60;94.60;;;;;;4906985;29;20411;-73
2022/08/10 03:26:20;;;;;;;6.22;2.88;;;17.50;95.10;;;;;;4909494;29;20024;-73
2022/08/10 03:28:47;;;;;;;11.07;3.15;;;17.50;95.00;;;;;;4905100;29;20043;-73
2022/08/10 03:31:13;;;;;;;4.65;2.88;;;17.50;95.00;;;;;;4904498;29;20437;-73
2022/08/10 03:33:41;;;;;;;4.50;2.67;;;17.40;95.40;;;;;;4911942;29;20111;-73
2022/08/10 03:36:07;;;;;;;7.38;2.60;;;17.40;95.50;;;;;;4915614;29;20138;-73
2022/08/10 03:38:33;;;;;;;3.42;2.80;;;17.40;96.00;;;;;;4902507;29;20186;-73
2022/08/10 03:41:03;;;;;;;4.75;2.83;;;17.30;96.00;;;;;;4902869;29;20021;-73
2022/08/10 03:43:29;;;;;;;5.80;2.60;;;17.30;96.20;;;;;;4905070;29;20477;-73
2022/08/10 03:45:58;;;;;;;5.32;2.97;;;17.30;96.10;;;;;;4905778;29;20498;-73
2022/08/10 03:48:26;;;;;;;7.03;2.72;;;17.30;96.00;;;;;;4905268;29;20055;-73
2022/08/10 03:50:54;;;;;;;5.32;2.60;;;17.30;96.20;;;;;;4907838;29;20055;-73
2022/08/10 03:53:20;;;;;;;5.13;2.60;;;17.20;96.40;;;;;;4918118;29;20051;-73
2022/08/10 03:55:46;;;;;;;5.03;2.70;;;17.20;96.40;;;;;;4904351;29;20651;-73
2022/08/10 03:58:12;;;;;;;4.50;2.80;;;17.20;96.30;;;;;;4901356;29;20100;-74
2022/08/10 04:00:39;;;;;;;5.07;2.58;;;17.20;96.50;;;;;;4896996;29;20185;-74
2022/08/10 04:03:05;;;;;;;4.85;2.33;;;17.20;96.60;;;;;;4905817;29;20039;-73
2022/08/10 04:05:34;;;;;;;5.45;2.78;;;17.20;96.40;;;;;;4905900;29;20040;-74
2022/08/10 04:08:01;;;;;;;3.95;2.80;;;17.20;96.40;;;;;;4909491;29;20029;-73
2022/08/10 04:10:27;;;;;;;4.47;2.63;;;17.20;96.50;;;;;;4907007;29;20020;-73
2022/08/10 04:12:53;;;;;;;4.50;2.55;;;17.20;96.30;;;;;;4907368;29;20042;-73
2022/08/10 04:15:19;;;;;;;4.53;2.60;;;17.20;96.50;;;;;;4901685;29;20044;-74
2022/08/10 04:17:45;;;;;;;3.92;2.65;;;17.20;96.90;;;;;;4908624;29;20043;-74
2022/08/10 04:20:39;;;;;;;4.85;2.60;;;17.20;96.90;;;;;;4905017;29;20039;-73
2022/08/10 04:23:11;;;;;;;3.47;2.60;;;17.20;97.00;;;;;;4904329;29;20111;-73
2022/08/10 04:25:38;;;;;;;4.93;2.60;;;17.10;96.90;;;;;;4902712;29;20055;-72
2022/08/10 04:28:05;;;;;;;4.50;2.35;;;17.20;97.10;;;;;;4910491;29;20040;-73
2022/08/10 04:30:34;;;;;;;4.40;2.78;;;17.10;97.20;;;;;;4901673;29;20503;-73
2022/08/10 04:33:02;;;;;;;5.05;3.00;;;17.10;97.10;;;;;;4905431;29;20040;-73
2022/08/10 04:35:30;;;;;;;7.32;2.78;;;17.20;97.20;;;;;;4894206;29;20029;-72
2022/08/10 04:37:58;;;;;;;7.00;2.50;;;17.20;97.30;;;;;;4900151;29;20040;-73
2022/08/10 04:40:24;;;;;;;4.82;2.42;;;17.20;97.70;;;;;;4901620;29;20036;-74
2022/08/10 04:42:50;;;;;;;4.18;2.53;;;17.10;97.70;;;;;;4906253;29;20481;-73
2022/08/10 04:45:16;;;;;;;5.95;2.50;;;17.10;98.00;;;;;;4906468;29;20770;-73
2022/08/10 04:47:41;;;;;;;5.03;2.63;;;17.10;97.80;;;;;;4908568;29;20064;-73
2022/08/10 04:50:07;;;;;;;5.60;2.55;;;17.10;97.90;;;;;;4907204;29;20103;-73
2022/08/10 04:52:33;;;;;;;4.45;2.60;;;17.10;98.40;;;;;;4907248;29;20026;-73
2022/08/10 04:54:58;;;;;;;7.22;2.67;;;17.10;98.80;;;;;;4910588;29;20089;-73
2022/08/10 04:57:24;;;;;;;4.93;2.78;;;17.00;98.80;;;;;;4904337;29;20032;-73
2022/08/10 04:59:50;;;;;;;6.40;2.90;;;17.00;99.10;;;;;;4911320;29;20575;-73
2022/08/10 05:02:15;;;;;;;8.27;2.70;;;17.00;99.20;;;;;;4903047;29;20037;-73
2022/08/10 05:04:41;;;;;;;6.20;2.75;;;17.00;99.50;;;;;;4906439;29;20032;-73
2022/08/10 05:07:12;;;;;;;5.53;2.60;;;17.00;99.60;;;;;;4907287;29;20027;-73
2022/08/10 05:09:39;;;;;;;6.65;2.90;;;17.00;99.60;;;;;;4909257;29;20075;-73
2022/08/10 05:12:05;;;;;;;7.03;2.90;;;17.10;99.50;;;;;;4900780;29;20036;-73
2022/08/10 05:14:31;;;;;;;6.85;2.72;;;17.10;99.40;;;;;;4905011;29;20043;-73
2022/08/10 05:16:56;;;;;;;6.57;2.95;;;17.10;99.40;;;;;;4915069;29;20462;-73
2022/08/10 05:19:22;;;;;;;4.60;2.80;;;17.10;99.60;;;;;;4908947;29;20044;-74
2022/08/10 05:21:48;;;;;;;5.57;2.78;;;17.10;99.80;;;;;;4907176;29;20516;-73
2022/08/10 05:24:13;;;;;;;4.82;2.60;;;17.10;99.90;;;;;;4902369;29;20046;-73
2022/08/10 05:26:39;;;;;;;7.72;2.97;;;17.10;99.90;;;;;;4904932;29;20385;-73
2022/08/10 05:29:04;;;;;;;3.30;2.53;;;17.00;99.90;;;;;;4906173;29;20032;-73
2022/08/10 05:31:30;;;;;;;4.60;2.60;;;17.10;99.90;;;;;;4894069;29;20024;-73
2022/08/10 05:33:56;;;;;;;6.00;2.90;;;17.10;99.90;;;;;;4896448;29;20029;-73
2022/08/10 05:36:23;;;;;;;5.38;3.22;;;17.10;99.90;;;;;;4906567;29;20028;-74
2022/08/10 05:38:48;;;;;;;5.20;2.70;;;17.10;99.90;;;;;;4904101;29;20028;-73
2022/08/10 05:41:15;;;;;;;7.13;2.92;;;17.20;99.90;;;;;;4902762;29;20616;-73
2022/08/10 05:43:41;;;;;;;6.40;2.80;;;17.20;99.90;;;;;;4904110;29;20058;-74
2022/08/10 05:46:07;;;;;;;7.28;2.85;;;17.20;99.90;;;;;;4907915;29;20075;-73
2022/08/10 05:48:34;;;;;;;5.80;2.90;;;17.20;99.90;;;;;;4907134;29;20032;-73
2022/08/10 05:51:00;;;;;;;5.82;3.00;;;17.30;99.90;;;;;;4902616;29;20481;-74
2022/08/10 05:53:26;;;;;;;3.95;2.50;;;17.40;99.90;;;;;;4925416;29;20042;-73
2022/08/10 05:55:51;;;;;;;4.47;2.80;;;17.40;99.90;;;;;;4906370;29;20032;-73
2022/08/10 05:58:17;;;;;;;4.55;2.70;;;17.40;99.90;;;;;;4899135;29;20059;-74
2022/08/10 06:00:46;;;;;;;5.50;3.45;;;17.50;99.90;;;;;;4903267;29;20042;-73
2022/08/10 06:03:15;;;;;;;7.63;3.47;;;17.50;99.90;;;;;;4906565;29;20048;-73
2022/08/10 06:05:43;;;;;;;4.65;2.80;;;17.50;99.90;;;;;;4907671;29;20040;-73
2022/08/10 06:08:14;;;;;;;5.30;2.97;;;17.60;99.90;;;;;;4916140;29;20024;-73
2022/08/10 06:10:42;;;;;;;5.28;3.15;;;17.60;99.90;;;;;;4907671;29;20046;-73
2022/08/10 06:15:55;;;;;;;5.45;2.83;;;17.70;99.90;;;;;;4912202;29;20116;-73
2022/08/10 06:18:23;;;;;;;3.75;2.63;;;17.80;99.90;;;;;;4902401;29;20029;-73
2022/08/10 06:20:50;;;;;;;5.43;2.65;;;17.80;99.90;;;;;;4902226;29;20032;-73
2022/08/10 06:23:16;;;;;;;6.25;2.60;;;17.80;99.90;;;;;;4913901;29;20498;-74
2022/08/10 06:25:42;;;;;;;6.35;2.63;;;17.90;99.90;;;;;;4924592;29;20500;-73
2022/08/10 06:28:13;;;;;;;4.18;2.58;;;17.90;99.90;;;;;;4906593;29;20028;-74
2022/08/10 06:30:39;;;;;;;5.05;2.72;;;18.00;99.90;;;;;;4905909;29;20036;-73
2022/08/10 06:33:07;;;;;;;3.55;2.90;;;18.00;99.90;;;;;;4903274;29;20079;-73
2022/08/10 06:35:33;;;;;;;4.68;3.05;;;18.10;99.90;;;;;;4910758;29;20036;-73
2022/08/10 06:38:03;;;;;;;4.68;2.85;;;18.10;99.90;;;;;;4913677;29;20028;-73
2022/08/10 06:40:34;;;;;;;5.22;2.80;;;18.20;99.90;;;;;;4907301;29;20055;-73
2022/08/10 06:43:02;;;;;;;4.05;3.30;;;18.20;99.90;;;;;;4915601;29;20419;-73
2022/08/10 06:45:54;;;;;;;5.43;2.80;;;18.30;99.90;;;;;;4905413;29;20028;-73
2022/08/10 06:48:27;;;;;;;5.57;3.05;;;18.40;99.90;;;;;;4908800;29;20055;-74
2022/08/10 06:51:19;;;;;;;14.32;3.42;;;18.50;99.90;;;;;;4908544;29;20088;-73
2022/08/10 06:53:52;;;;;;;9.35;3.10;;;18.80;99.90;;;;;;4900424;29;20131;-72
2022/08/10 06:56:19;;;;;;;7.78;3.20;;;19.00;99.90;;;;;;4904751;29;20115;-73
2022/08/10 06:58:51;;;;;;;4.80;2.65;;;19.30;99.90;;;;;;4903191;29;20046;-73
2022/08/10 07:01:21;;;;;;;8.05;2.80;;;19.60;99.90;;;;;;4900824;29;20573;-73
2022/08/10 07:03:56;;;;;;;8.18;2.92;;;19.90;99.80;;;;;;4906237;29;20485;-73
2022/08/10 07:06:23;;;;;;;4.75;2.33;;;20.20;99.40;;;;;;4903832;29;20028;-73
2022/08/10 07:08:51;;;;;;;8.50;2.60;;;20.50;98.50;;;;;;4903093;29;20064;-73
2022/08/10 07:11:19;;;;;;;7.43;2.35;;;20.90;97.80;;;;;;4908466;29;20028;-73
2022/08/10 07:13:46;;;;;;;7.20;2.60;;;21.20;96.10;;;;;;4905325;29;20025;-73
2022/08/10 07:16:13;;;;;;;4.65;2.45;;;21.60;95.10;;;;;;4911232;29;20484;-73
2022/08/10 07:18:41;;;;;;;7.60;2.30;;;21.60;95.40;;;;;;4911472;29;20119;-73
2022/08/10 07:21:07;;;;;;;8.05;2.22;;;21.90;94.10;;;;;;4908032;29;20031;-73
2022/08/10 07:23:34;;;;;;;5.40;2.53;;;22.10;93.10;;;;;;4907019;29;20048;-72
2022/08/10 07:26:01;;;;;;;4.55;2.20;;;22.30;92.40;;;;;;4908679;29;20028;-73
2022/08/10 07:28:30;;;;;;;9.15;2.20;;;22.50;91.00;;;;;;4909258;29;20119;-73
2022/08/10 07:30:57;;;;;;;6.50;2.28;;;22.70;90.10;;;;;;4902078;29;20047;-73
2022/08/10 07:33:23;;;;;;;5.20;2.40;;;22.80;89.40;;;;;;4907542;29;20063;-73
2022/08/10 07:35:50;;;;;;;7.30;2.17;;;23.00;89.30;;;;;;4906781;29;20075;-73
2022/08/10 07:38:23;;;;;;;5.80;2.63;;;23.10;86.70;;;;;;4901677;29;20025;-73
2022/08/10 07:40:50;;;;;;;2.88;2.22;;;23.20;86.40;;;;;;4907934;29;20036;-73
2022/08/10 07:43:19;;;;;;;7.80;2.20;;;23.30;86.00;;;;;;4909080;29;20067;-74
2022/08/10 07:45:46;;;;;;;11.63;2.60;;;23.40;82.70;;;;;;4904035;29;20036;-73
2022/08/10 07:48:26;;;;;;;9.75;2.40;;;23.40;82.30;;;;;;4902881;29;20088;-74
2022/08/10 07:50:56;;;;;;;3.85;1.77;;;23.50;84.70;;;;;;4907348;29;20084;-72
2022/08/10 07:53:26;;;;;;;9.77;2.20;;;23.50;84.20;;;;;;4905365;29;20053;-73
2022/08/10 07:55:53;;;;;;;3.58;2.08;;;23.70;83.20;;;;;;4912088;29;20028;-73
2022/08/10 07:58:24;;;;;;;4.68;2.30;;;23.70;82.00;;;;;;4904646;29;20641;-74
2022/08/10 08:00:50;;;;;;;10.15;2.58;;;23.80;81.30;;;;;;4899018;29;20047;-73
2022/08/10 08:03:23;;;;;;;5.22;2.50;;;23.80;81.90;;;;;;4902706;29;20038;-74
2022/08/10 08:05:50;;;;;;;10.02;2.40;;;23.80;80.30;;;;;;4899489;29;20035;-73
2022/08/10 08:08:17;;;;;;;8.50;2.22;;;23.80;79.70;;;;;;4908346;29;20040;-73
2022/08/10 08:10:44;;;;;;;4.78;2.30;;;23.80;79.10;;;;;;4903851;29;20036;-72
2022/08/10 08:13:12;;;;;;;8.93;2.40;;;23.90;79.30;;;;;;4897000;29;20550;-74
2022/08/10 08:15:39;;;;;;;6.43;2.28;;;23.80;78.90;;;;;;4891888;29;20044;-74
2022/08/10 08:18:06;;;;;;;4.20;2.20;;;24.00;79.90;;;;;;4900313;29;20428;-74
2022/08/10 08:20:32;;;;;;;4.70;2.40;;;24.20;78.00;;;;;;4893374;29;20043;-76
2022/08/10 08:22:58;;;;;;;5.32;2.47;;;24.20;77.70;;;;;;4899340;29;20020;-76
2022/08/10 08:25:24;;;;;;;7.05;2.35;;;24.30;77.70;;;;;;4919696;29;20036;-76
2022/08/10 08:27:54;;;;;;;6.28;2.40;;;;;;;;;;4906736;29;20507;-74
2022/08/10 08:30:21;;;;;;;6.10;2.55;;;24.40;75.50;;;;;;4899107;29;20032;-74
2022/08/10 08:32:47;;;;;;;10.23;2.22;;;24.50;76.30;;;;;;4899255;29;20051;-74
2022/08/10 08:35:16;;;;;;;7.43;2.35;;;24.40;75.30;;;;;;4900388;29;20036;-75
2022/08/10 08:37:45;;;;;;;4.65;2.40;;;24.40;75.20;;;;;;4907497;29;20042;-74
2022/08/10 08:40:28;;;;;;;6.32;2.20;;;24.50;75.90;;;;;;5099324;27;20123;-73
2022/08/10 08:43:22;;;;;;;5.85;2.30;;;24.50;75.70;;;;;;5116099;27;20023;-73
2022/08/10 08:46:33;;;;;;;6.40;2.50;;;24.60;75.00;;;;;;5113554;28;20131;-72
2022/08/10 08:49:17;;;;;;;5.90;2.22;;;24.60;74.30;;;;;;5117703;28;20382;-74
2022/08/10 08:52:20;;;;;;;4.07;2.30;;;24.70;75.60;;;;;;5109169;28;20092;-73
2022/08/10 08:55:08;;;;;;;7.30;2.57;;;24.80;74.20;;;;;;5104437;28;21979;-73
2022/08/10 08:57:53;;;;;;;4.60;2.10;;;25.10;73.80;;;;;;5117699;28;20282;-73
2022/08/10 09:00:29;;;;;;;4.90;2.30;;;25.20;73.40;;;;;;5107600;28;20039;-74
2022/08/10 09:03:15;;;;;;;6.95;2.20;;;25.40;71.40;;;;;;5112783;28;20705;-73
2022/08/10 09:05:43;;;;;;;6.43;2.40;;;25.50;71.60;;;;;;5118361;28;20020;-73
2022/08/10 09:08:22;;;;;;;6.00;2.15;;;25.70;71.20;;;;;;5121293;28;20034;-73
2022/08/10 09:11:39;;;;;;;9.32;2.38;;;25.80;70.10;;;;;;5116421;27;20443;-73
2022/08/10 09:14:04;;;;;;;8.32;2.78;;;25.50;70.50;;;;;;4997936;28;20747;-73
2022/08/10 09:16:51;;;;;;;5.03;2.30;;;25.40;69.60;;;;;;4995477;28;20121;-72
2022/08/10 09:19:43;;;;;;;7.05;2.70;;;25.50;70.10;;;;;;5064944;28;20075;-73
2022/08/10 09:22:31;;;;;;;3.17;2.17;;;25.60;69.80;;;;;;5110224;28;20031;-72
2022/08/10 09:25:11;;;;;;;6.13;2.45;;;25.80;69.90;;;;;;5085683;28;20039;-72
2022/08/10 09:27:44;;;;;;;5.18;2.13;;;25.80;68.60;;;;;;5081615;28;20424;-72
2022/08/10 09:30:15;;;;;;;4.15;2.22;;;26.00;69.30;;;;;;5096098;28;20591;-72
2022/08/10 09:32:56;;;;;;;5.18;2.63;;;26.10;68.10;;;;;;5091154;28;20027;-72
2022/08/10 09:35:42;;;;;;;6.63;2.28;;;26.20;67.30;;;;;;5100677;28;20078;-72
2022/08/10 09:38:34;;;;;;;5.85;2.50;;;26.30;67.10;;;;;;5101275;28;20058;-72
2022/08/10 09:41:42;;;;;;;5.03;2.60;;;26.50;66.80;;;;;;5099688;28;20031;-72
2022/08/10 09:44:29;;;;;;;3.17;2.30;;;26.40;65.80;;;;;;5093642;28;20081;-72
2022/08/10 09:47:09;;;;;;;5.28;2.50;;;26.50;65.70;;;;;;5091358;28;20034;-72
2022/08/10 09:49:50;;;;;;;5.50;2.30;;;26.70;65.00;;;;;;5093937;28;20586;-72
2022/08/10 09:53:02;;;;;;;6.80;2.60;;;26.80;64.10;;;;;;5081136;28;20717;-73
2022/08/10 09:55:35;;;;;;;2.70;2.45;;;;;;;;;;5083137;28;20023;-70
2022/08/10 09:58:38;;;;;;;14.18;2.65;;;27.20;62.50;;;;;;5076328;28;20028;-70
2022/08/10 10:01:14;;;;;;;4.90;2.38;;;27.20;61.80;;;;;;5080470;28;20021;-70
2022/08/10 10:04:11;;;;;;;3.05;2.22;;;27.20;62.40;;;;;;5083508;28;20058;-70
2022/08/10 10:07:00;;;;;;;3.95;2.65;;;27.00;61.90;;;;;;5033722;28;20273;-70
2022/08/10 10:09:51;;;;;;;2.90;2.40;;;26.80;62.10;;;;;;5081108;28;20656;-69
2022/08/10 10:12:24;;;;;;;4.07;2.30;;;26.80;61.80;;;;;;5074728;28;20032;-70
2022/08/10 10:15:20;;;;;;;4.32;2.40;;;;;;;;;;5076670;28;20111;-70
2022/08/10 10:18:02;;;;;;;2.67;2.30;;;27.10;61.00;;;;;;5081771;28;20028;-70
2022/08/10 10:20:47;;;;;;;4.70;2.50;;;27.30;59.50;;;;;;5075313;28;20090;-70
2022/08/10 10:23:28;;;;;;;5.20;2.45;;;27.40;59.00;;;;;;5083253;28;20644;-70
2022/08/10 10:26:23;;;;;;;6.30;2.80;;;27.50;58.40;;;;;;5081558;28;20472;-70
2022/08/10 10:29:07;;;;;;;2.78;2.20;;;27.60;57.80;;;;;;5061384;28;20035;-70
2022/08/10 10:31:49;;;;;;;4.25;2.20;;;27.70;57.90;;;;;;5071814;28;20037;-71
2022/08/10 10:34:15;;;;;;;4.35;2.50;;;27.50;57.70;;;;;;5082151;28;20028;-71
2022/08/10 10:36:42;;;;;;;3.53;2.35;;;27.30;56.90;;;;;;5080109;28;20490;-70
2022/08/10 10:39:14;;;;;;;4.43;2.22;;;27.20;56.70;;;;;;5078045;28;20112;-70
2022/08/10 10:42:01;;;;;;;4.30;2.40;;;27.10;57.00;;;;;;5077916;28;20891;-70
2022/08/10 10:45:00;;;;;;;4.35;2.50;;;27.10;55.90;;;;;;5079137;28;20690;-71
2022/08/10 10:47:37;;;;;;;3.88;2.10;;;27.20;56.90;;;;;;5085805;28;20544;-70
2022/08/10 10:50:12;;;;;;;5.78;2.40;;;27.30;55.60;;;;;;5076576;28;20479;-70
2022/08/10 10:53:02;;;;;;;2.33;2.10;;;27.30;55.10;;;;;;5081081;28;20360;-70
2022/08/10 10:55:48;;;;;;;9.68;2.38;;;27.30;55.60;;;;;;5085002;28;20507;-70
2022/08/10 10:58:26;;;;;;;4.95;2.20;;;27.30;54.90;;;;;;5070694;28;20470;-71
2022/08/10 11:01:09;;;;;;;3.15;2.35;;;27.20;54.60;;;;;;5076704;28;20035;-70
2022/08/10 11:03:50;;;;;;;5.13;2.30;;;27.20;55.10;;;;;;5084390;28;20058;-70
2022/08/10 11:06:46;;;;;;;5.38;2.50;;;27.30;54.50;;;;;;5081986;28;23849;-70
2022/08/10 11:09:42;;;;;;;3.83;2.25;;;27.40;54.40;;;;;;5085017;28;20372;-70
2022/08/10 11:12:28;;;;;;;2.40;2.20;;;27.40;55.10;;;;;;5070590;28;20040;-70
2022/08/10 11:15:00;;;;;;;3.63;2.40;;;;;;;;;;5076905;28;20488;-71
2022/08/10 11:17:37;;;;;;;2.83;2.33;;;27.70;53.60;;;;;;5083956;28;20089;-70
2022/08/10 11:20:09;;;;;;;7.00;2.25;;;27.80;55.70;;;;;;5074598;28;20096;-71
2022/08/10 11:22:56;;;;;;;4.55;2.25;;;27.80;54.70;;;;;;5082701;28;20039;-71
2022/08/10 11:25:28;;;;;;;4.85;2.30;;;27.60;54.50;;;;;;5078108;28;20025;-71
2022/08/10 11:28:07;;;;;;;6.35;2.22;;;27.60;54.30;;;;;;5080611;28;20028;-71
2022/08/10 11:30:51;;;;;;;5.88;2.28;;;27.80;54.80;;;;;;5076115;28;20027;-70
2022/08/10 11:33:32;;;;;;;4.80;2.30;;;28.00;53.10;;;;;;5076841;28;20028;-70
2022/08/10 11:36:14;;;;;;;3.28;2.13;;;28.10;53.40;;;;;;5081911;28;20024;-71
2022/08/10 11:38:46;;;;;;;2.70;2.03;;;28.20;53.10;;;;;;5083303;28;20056;-70
2022/08/10 11:41:38;;;;;;;3.40;2.33;;;28.20;52.80;;;;;;5073340;28;20457;-71
2022/08/10 11:44:28;;;;;;;4.95;2.10;;;28.20;52.70;;;;;;5064881;28;20024;-71
2022/08/10 11:47:17;;;;;;;3.42;2.03;;;28.10;52.20;;;;;;5075193;28;20020;-70
2022/08/10 11:49:54;;;;;;;6.68;2.72;;;28.30;52.10;;;;;;5082815;28;20020;-70
2022/08/10 11:52:50;;;;;;;3.70;2.13;;;28.40;53.20;;;;;;5073397;28;20082;-70
2022/08/10 11:55:25;;;;;;;7.15;2.20;;;28.40;52.90;;;;;;5076540;28;20386;-70
2022/08/10 11:57:56;;;;;;;3.30;2.15;;;28.50;53.20;;;;;;5079045;28;20074;-70
2022/08/10 12:00:23;;;;;;;8.68;2.28;;;28.50;52.20;;;;;;5079866;28;20035;-71
2022/08/10 12:02:54;;;;;;;7.28;2.47;;;28.30;53.00;;;;;;5078789;28;20527;-71
2022/08/10 12:05:25;;;;;;;2.40;1.90;;;27.90;52.80;;;;;;4337942;28;10001012;-70
2022/08/10 12:07:54;;;;;;;2.60;2.10;;;27.40;53.70;;;;;;5034620;28;20037;-73
2022/08/10 12:10:21;;;;;;;4.13;2.20;;;27.20;54.40;;;;;;5024431;28;20033;-71
2022/08/10 12:13:08;;;;;;;4.25;2.35;;;27.30;54.30;;;;;;5035111;28;20044;-72
2022/08/10 12:15:51;;;;;;;4.50;2.40;;;27.60;54.80;;;;;;5033023;28;20032;-71
2022/08/10 12:18:23;;;;;;;6.00;2.42;;;28.10;54.20;;;;;;5037280;28;20082;-72
2022/08/10 12:20:56;;;;;;;3.00;2.13;;;28.40;53.40;;;;;;5030407;28;20574;-72
2022/08/10 12:23:44;;;;;;;2.95;2.08;;;28.50;53.10;;;;;;5028849;28;20504;-72
2022/08/10 12:26:34;;;;;;;2.30;2.10;;;28.50;53.30;;;;;;5032352;28;20061;-72
2022/08/10 12:29:24;;;;;;;6.07;2.40;;;28.10;53.60;;;;;;5031581;28;20029;-72
2022/08/10 12:31:56;;;;;;;7.43;2.50;;;27.90;54.10;;;;;;5023252;28;21639;-72
2022/08/10 12:34:51;;;;;;;3.77;2.40;;;27.50;54.40;;;;;;5028386;28;20072;-72
2022/08/10 12:37:33;;;;;;;2.63;2.28;;;27.40;54.10;;;;;;5059654;28;20043;-72
2022/08/10 12:40:20;;;;;;;3.95;1.90;;;27.50;53.90;;;;;;5070800;28;20044;-72
2022/08/10 12:43:08;;;;;;;2.67;2.30;;;27.90;53.20;;;;;;5072697;28;20388;-73
2022/08/10 12:45:52;;;;;;;2.60;2.30;;;28.20;53.40;;;;;;5074477;28;20539;-72
2022/08/10 12:48:29;;;;;;;4.15;2.20;;;28.30;54.10;;;;;;5069779;28;20025;-73
2022/08/10 12:51:13;;;;;;;11.27;2.35;;;28.20;52.90;;;;;;5068501;28;20032;-74
2022/08/10 12:53:47;;;;;;;5.18;2.50;;;28.20;52.80;;;;;;5078243;28;20062;-71
2022/08/10 12:56:32;;;;;;;7.07;2.42;;;28.20;53.50;;;;;;5079101;28;20332;-74
2022/08/10 12:58:59;;;;;;;7.47;2.17;;;28.10;52.60;;;;;;5071011;28;20040;-72
2022/08/10 13:01:33;;;;;;;3.75;2.30;;;28.00;53.10;;;;;;5077135;28;20476;-73
2022/08/10 13:04:09;;;;;;;7.90;2.85;;;28.20;53.10;;;;;;5078018;28;20028;-74
2022/08/10 13:06:45;;;;;;;5.28;2.10;;;28.30;53.20;;;;;;5069181;28;20530;-72
2022/08/10 13:09:14;;;;;;;3.90;2.10;;;28.50;52.90;;;;;;5080183;28;20039;-75
2022/08/10 13:11:44;;;;;;;7.38;2.25;;;28.70;51.60;;;;;;5079309;28;20031;-74
2022/08/10 13:14:15;;;;;;;5.05;2.22;;;28.80;51.50;;;;;;5070053;28;20039;-73
2022/08/10 13:16:43;;;;;;;7.00;2.10;;;29.00;51.00;;;;;;5073042;28;20488;-72
2022/08/10 13:19:09;;;;;;;7.10;2.15;;;28.90;50.60;;;;;;5075496;28;20044;-71
2022/08/10 13:21:37;;;;;;;2.88;2.30;;;28.50;50.70;;;;;;5074172;28;20502;-70
2022/08/10 13:24:09;;;;;;;4.30;2.08;;;28.40;50.80;;;;;;5075129;28;20557;-72
2022/08/10 13:26:50;;;;;;;3.50;1.92;;;28.60;50.50;;;;;;5084557;28;20107;-71